Detall de PIREP

Printer-friendly versionPDF version

[2012/12/05 12:40:00]
Flight IATA:CT1005
Pilot Number:042
Company ICAO:CAT
Aircraft Type:B763/F
PAX:98
Departing Airport: ELLX
Destination Airport: LGRP
Alternate Airport:LTAI
Online: VATSIM
Route:ASMOX Y891 ROPUV L607 RUDUS UL984 BOMBI UM149 DETEV UL603 UNKEN/N0454F370 UL603 VEBAR UP738 VAGEN UN128 FSK UG18 MES UN139 LURUS/N0398F230 L995 ASIMI
Flight Level:F350
No Slew and time accel
No pause
Crash detect
Detect pilot in Cockpit between each 30 and 45 minutes
12:40 Zero fuel Weight: 197001 Lbs, Fuel Weight: 161697 Lbs
12:40 VATSIM:ELLX 051220Z 28007KT 250V310 9999 BKN009 01/M01 Q1003 NOSIG
12:40 VATSIM:LGRP 051220Z 12005KT 9999 FEW025 SCT080 BKN190 15/08 Q1007 NOSIG RMK R07 12005G07KT R25 10006G10KT
12:41 VOICE CATALONIAN/EU TOUR
12:48 Parking Brakes off
12:52 Take-off
12:52 Take off Weight: 357012 Lbs
12:52 Wind: 282º @ 009 Knots Heading: 242º
12:52 POS N49º 37´ 37´´ E006º 12´ 46´´
12:52 Gear Up: 197 Knots
12:52 Flaps:3 at 197 Knots
12:52 Flaps:2 at 199 Knots
12:53 Flaps:1 at 178 Knots
12:53 Flaps:0 at 181 Knots
13:06 TOC
13:06 Fuel Weight: 152993 Lb
13:07 Wind:251º@025 Knots Heading: 110º Ground Speed: 473 Knots Altitude 34632 ft
13:14 TOD
13:14 Fuel Weight: 151585 Lb
13:14 TOC
13:14 Fuel Weight: 151566 Lb
14:22 Wind:280º@024 Knots Heading: 132º Ground Speed: 471 Knots Altitude 34701 ft
14:37 Wind:331º@026 Knots Heading: 118º Ground Speed: 471 Knots Altitude 34671 ft
14:37 TOD
14:37 Fuel Weight: 137324 Lb
14:38 TOC
14:38 Fuel Weight: 137176 Lb
14:42 TOD
14:42 Fuel Weight: 136389 Lb
14:43 TOC
14:43 Fuel Weight: 136335 Lb
14:52 Wind:309º@000 Knots Heading: 164º Ground Speed: 452 Knots Altitude 34609 ft
15:07 Wind:195º@013 Knots Heading: 142º Ground Speed: 446 Knots Altitude 34599 ft
15:22 Wind:225º@038 Knots Heading: 146º Ground Speed: 454 Knots Altitude 34635 ft
15:33 TOD
15:33 Fuel Weight: 127759 Lb
15:37 Wind:177º@047 Knots Heading: 162º Ground Speed: 382 Knots Altitude 27716 ft
15:52 Wind:167º@033 Knots Heading: 119º Ground Speed: 226 Knots Altitude 7283 ft
15:55 Flaps:1 at 219 Knots
15:56 Flaps:2 at 219 Knots
16:07 Wind:112º@009 Knots Heading: 062º Ground Speed: 214 Knots Altitude 6069 ft
16:12 Flaps:3 at 170 Knots
16:12 Gear Down: 172 Knots
16:12 Flaps:4 at 176 Knots
16:12 Flaps:5 at 173 Knots
16:12 Flaps:4 at 172 Knots
16:12 Flaps:6 at 171 Knots
16:13 Flaps:4 at 168 Knots
16:13 Flaps:6 at 168 Knots
16:15 TouchDown:Rate -265 ft/min Speed: 141 Knots
16:15 VATSIM:LGRP 051550Z VRB02KT 9999 FEW020 SCT080 BKN180 14/09 Q1006 NOSIG
16:15 Land
16:15 Wind:131º@006 Knots
16:15 Heading: 252º
16:15 Flight Duration: 03:23
16:15 Landing Weight: 319100 Lbs
16:15 POS N36º 24´ 38´´ E028º 05´ 19´´
16:17 Parking brakes on
16:17 Block to Block Duration: 03:29
16:17 Final Fuel: 121561 Lbls
16:17 Spent Fuel: 40136 Lbls
16:17 Flight Length: 933 NM
16:17 TOD Land Length: 183 NM

Exportar CSV

Powered by Drupal - Modified by Danger4k